CPA0803 YSSY-WSSS
Flight info
| Callsign | CPA0803 |
|---|---|
| Flight time | 4h 55m |
| Altitude | 36000 |
| Route | TESAT A576 PKS G222 AGAGO/N0471F380 G222 ONALA/N0469F400 G222 SAPDA A585 PLB G579 SJ |
| Aircraft | A343/H-SDE2E3FGHIJ4J5M1RWXY/LB1D1 |
Departure
| Time | 2026-04-25 08:02 |
|---|---|
| Airport | Sydney Kingsford Smith International Airport (YSSY) |
Arrival
| Time | 2026-04-25 12:57 |
|---|---|
| Airport | Singapore Changi Airport (WSSS) |
| Time | Latitude | Longitude | Altitude | Speed | Heading |
|---|---|---|---|---|---|
| 2026-04-25 07:22 | -33.93100 | 151.17627 | 34 ft | 0 kts | 166° |
| 2026-04-25 07:42 | -33.93098 | 151.17626 | 36 ft | 0 kts | 166° |
| 2026-04-25 07:42 | -33.93097 | 151.17626 | 36 ft | 0 kts | 166° |
| 2026-04-25 07:42 | -33.93096 | 151.17626 | 36 ft | 0 kts | 166° |
| 2026-04-25 07:43 | -33.93081 | 151.17621 | 34 ft | 2 kts | 166° |
| 2026-04-25 07:43 | -33.93062 | 151.17619 | 34 ft | 4 kts | 207° |
| 2026-04-25 07:43 | -33.93043 | 151.17634 | 33 ft | 3 kts | 234° |
| 2026-04-25 07:43 | -33.93034 | 151.17652 | 31 ft | 3 kts | 254° |
| 2026-04-25 07:44 | -33.93032 | 151.17674 | 32 ft | 4 kts | 287° |
| 2026-04-25 07:44 | -33.93037 | 151.17704 | 31 ft | 4 kts | 290° |
| 2026-04-25 07:44 | -33.93038 | 151.17708 | 32 ft | 0 kts | 286° |
| 2026-04-25 07:48 | -33.93038 | 151.17706 | 32 ft | 1 kts | 286° |
| 2026-04-25 07:48 | -33.93033 | 151.17691 | 31 ft | 4 kts | 290° |
| 2026-04-25 07:48 | -33.93020 | 151.17648 | 34 ft | 7 kts | 293° |
| 2026-04-25 07:49 | -33.93009 | 151.17580 | 32 ft | 9 kts | 262° |
| 2026-04-25 07:49 | -33.93052 | 151.17534 | 34 ft | 9 kts | 202° |
| 2026-04-25 07:49 | -33.93127 | 151.17528 | 34 ft | 13 kts | 176° |
| 2026-04-25 07:49 | -33.93219 | 151.17549 | 34 ft | 15 kts | 164° |
| 2026-04-25 07:50 | -33.93324 | 151.17577 | 34 ft | 16 kts | 170° |
| 2026-04-25 07:50 | -33.93443 | 151.17589 | 33 ft | 18 kts | 189° |
| 2026-04-25 07:50 | -33.93565 | 151.17605 | 31 ft | 18 kts | 169° |
| 2026-04-25 07:50 | -33.93652 | 151.17613 | 29 ft | 5 kts | 174° |
| 2026-04-25 07:51 | -33.93667 | 151.17626 | 30 ft | 3 kts | 143° |
| 2026-04-25 07:51 | -33.93702 | 151.17658 | 27 ft | 10 kts | 142° |
| 2026-04-25 07:51 | -33.93785 | 151.17697 | 25 ft | 16 kts | 165° |
| 2026-04-25 07:51 | -33.93881 | 151.17763 | 27 ft | 15 kts | 151° |
| 2026-04-25 07:52 | -33.93986 | 151.17803 | 27 ft | 16 kts | 167° |
| 2026-04-25 07:52 | -33.94108 | 151.17833 | 27 ft | 19 kts | 170° |
| 2026-04-25 07:52 | -33.94243 | 151.17867 | 28 ft | 21 kts | 167° |
| 2026-04-25 07:52 | -33.94394 | 151.17907 | 28 ft | 23 kts | 169° |
| 2026-04-25 07:53 | -33.94533 | 151.17871 | 27 ft | 15 kts | 187° |
| 2026-04-25 07:53 | -33.94598 | 151.17896 | 29 ft | 8 kts | 158° |
| 2026-04-25 07:53 | -33.94670 | 151.17921 | 27 ft | 13 kts | 166° |
| 2026-04-25 07:53 | -33.94773 | 151.17949 | 27 ft | 17 kts | 169° |
| 2026-04-25 07:54 | -33.94901 | 151.17980 | 31 ft | 20 kts | 166° |
| 2026-04-25 07:54 | -33.95036 | 151.18016 | 29 ft | 20 kts | 170° |
| 2026-04-25 07:54 | -33.95114 | 151.17998 | 30 ft | 8 kts | 230° |
| 2026-04-25 07:54 | -33.95137 | 151.17929 | 29 ft | 10 kts | 262° |
| 2026-04-25 07:55 | -33.95154 | 151.17828 | 27 ft | 15 kts | 252° |
| 2026-04-25 07:55 | -33.95219 | 151.17742 | 30 ft | 15 kts | 221° |
| 2026-04-25 07:55 | -33.95269 | 151.17639 | 27 ft | 16 kts | 236° |
| 2026-04-25 07:55 | -33.95377 | 151.17590 | 26 ft | 18 kts | 174° |
| 2026-04-25 07:56 | -33.95505 | 151.17622 | 27 ft | 20 kts | 167° |
| 2026-04-25 07:56 | -33.95531 | 151.17628 | 28 ft | 0 kts | 167° |
| 2026-04-25 07:56 | -33.95537 | 151.17630 | 27 ft | 3 kts | 167° |
| 2026-04-25 07:56 | -33.95567 | 151.17638 | 28 ft | 6 kts | 167° |
| 2026-04-25 07:57 | -33.95617 | 151.17652 | 27 ft | 9 kts | 167° |
| 2026-04-25 07:57 | -33.95683 | 151.17670 | 28 ft | 11 kts | 167° |
| 2026-04-25 07:57 | -33.95768 | 151.17690 | 28 ft | 14 kts | 169° |
| 2026-04-25 07:57 | -33.95883 | 151.17717 | 26 ft | 19 kts | 168° |
| 2026-04-25 07:58 | -33.96019 | 151.17756 | 28 ft | 21 kts | 166° |
| 2026-04-25 07:58 | -33.96166 | 151.17793 | 28 ft | 23 kts | 168° |
| 2026-04-25 07:58 | -33.96331 | 151.17836 | 27 ft | 25 kts | 168° |
| 2026-04-25 07:58 | -33.96429 | 151.17891 | 28 ft | 13 kts | 128° |
| 2026-04-25 07:59 | -33.96436 | 151.17925 | 28 ft | 0 kts | 92° |
| 2026-04-25 07:59 | -33.96436 | 151.17928 | 28 ft | 3 kts | 92° |
| 2026-04-25 07:59 | -33.96415 | 151.18027 | 28 ft | 5 kts | 50° |
| 2026-04-25 07:59 | -33.96401 | 151.18041 | 28 ft | 8 kts | 34° |
| 2026-04-25 08:00 | -33.96318 | 151.18034 | 27 ft | 16 kts | 345° |
| 2026-04-25 08:00 | -33.96216 | 151.18007 | 29 ft | 35 kts | 348° |
| 2026-04-25 08:00 | -33.95798 | 151.17902 | 29 ft | 86 kts | 347° |
| 2026-04-25 08:00 | -33.95067 | 151.17712 | 28 ft | 128 kts | 347° |
| 2026-04-25 08:01 | -33.94083 | 151.17459 | 28 ft | 161 kts | 348° |
| 2026-04-25 08:01 | -33.92956 | 151.17157 | 396 ft | 165 kts | 347° |
| 2026-04-25 08:01 | -33.91915 | 151.16401 | 316 ft | 195 kts | 304° |
| 2026-04-25 08:01 | -33.91540 | 151.14771 | 427 ft | 212 kts | 276° |
| 2026-04-25 08:02 | -33.91067 | 151.13142 | 1123 ft | 200 kts | 304° |
| 2026-04-25 08:02 | -33.90027 | 151.12122 | 1895 ft | 192 kts | 342° |
| 2026-04-25 08:02 | -33.88792 | 151.11685 | 2608 ft | 184 kts | 329° |
| 2026-04-25 08:02 | -33.87925 | 151.10526 | 2912 ft | 200 kts | 297° |
| 2026-04-25 08:03 | -33.87281 | 151.08952 | 3212 ft | 220 kts | 295° |
| 2026-04-25 08:03 | -33.86586 | 151.07203 | 3540 ft | 241 kts | 296° |
| 2026-04-25 08:03 | -33.85813 | 151.05343 | 4045 ft | 253 kts | 297° |
| 2026-04-25 08:03 | -33.85272 | 151.04073 | 4380 ft | 261 kts | 297° |
| 2026-04-25 08:04 | -33.84502 | 151.02070 | 4655 ft | 264 kts | 289° |
| 2026-04-25 08:04 | -33.84027 | 150.99931 | 4992 ft | 266 kts | 282° |
| 2026-04-25 08:04 | -33.83635 | 150.97745 | 5643 ft | 269 kts | 282° |
| 2026-04-25 08:04 | -33.83242 | 150.95542 | 6421 ft | 270 kts | 282° |
| 2026-04-25 08:05 | -33.82843 | 150.93328 | 7150 ft | 272 kts | 282° |
| 2026-04-25 08:05 | -33.82438 | 150.91094 | 7864 ft | 275 kts | 282° |
| 2026-04-25 08:05 | -33.82025 | 150.88835 | 8546 ft | 278 kts | 282° |
| 2026-04-25 08:05 | -33.81608 | 150.86555 | 9222 ft | 280 kts | 282° |
| 2026-04-25 08:06 | -33.81186 | 150.84257 | 9861 ft | 284 kts | 282° |
| 2026-04-25 08:06 | -33.80748 | 150.81871 | 10201 ft | 299 kts | 282° |
| 2026-04-25 08:06 | -33.80286 | 150.79358 | 10496 ft | 315 kts | 282° |
| 2026-04-25 08:06 | -33.79802 | 150.76734 | 10795 ft | 329 kts | 282° |
| 2026-04-25 08:07 | -33.79302 | 150.74022 | 11068 ft | 343 kts | 282° |
| 2026-04-25 08:07 | -33.78776 | 150.71176 | 11331 ft | 356 kts | 282° |
| 2026-04-25 08:07 | -33.78230 | 150.68225 | 11672 ft | 366 kts | 282° |
| 2026-04-25 08:07 | -33.77671 | 150.65209 | 12145 ft | 372 kts | 282° |
| 2026-04-25 08:08 | -33.77106 | 150.62164 | 12650 ft | 376 kts | 282° |
| 2026-04-25 08:08 | -33.76530 | 150.59067 | 13170 ft | 380 kts | 282° |
| 2026-04-25 08:08 | -33.75951 | 150.55953 | 13690 ft | 384 kts | 282° |
| 2026-04-25 08:08 | -33.75364 | 150.52805 | 14210 ft | 387 kts | 282° |
| 2026-04-25 08:09 | -33.74771 | 150.49630 | 14731 ft | 391 kts | 282° |
| 2026-04-25 08:09 | -33.74179 | 150.46463 | 15237 ft | 394 kts | 282° |
| 2026-04-25 08:09 | -33.73574 | 150.43234 | 15753 ft | 398 kts | 282° |
| 2026-04-25 08:09 | -33.72964 | 150.39981 | 16265 ft | 401 kts | 282° |
| 2026-04-25 08:10 | -33.72346 | 150.36691 | 16767 ft | 405 kts | 283° |
| 2026-04-25 08:10 | -33.71724 | 150.33381 | 17261 ft | 408 kts | 283° |
| 2026-04-25 08:10 | -33.71094 | 150.30039 | 17738 ft | 412 kts | 283° |
| 2026-04-25 08:10 | -33.70457 | 150.26660 | 18221 ft | 415 kts | 283° |
| 2026-04-25 08:11 | -33.69816 | 150.23262 | 18700 ft | 417 kts | 283° |
| 2026-04-25 08:11 | -33.69182 | 150.19892 | 19198 ft | 420 kts | 283° |
| 2026-04-25 08:11 | -33.68528 | 150.16414 | 19675 ft | 423 kts | 282° |
| 2026-04-25 08:11 | -33.67886 | 150.12994 | 20116 ft | 425 kts | 282° |
| 2026-04-25 08:12 | -33.67233 | 150.09518 | 20563 ft | 428 kts | 282° |
| 2026-04-25 08:12 | -33.66576 | 150.06009 | 20972 ft | 431 kts | 282° |
| 2026-04-25 08:12 | -33.65915 | 150.02483 | 21372 ft | 435 kts | 282° |
| 2026-04-25 08:12 | -33.65251 | 149.98931 | 21740 ft | 438 kts | 282° |
| 2026-04-25 08:13 | -33.64582 | 149.95349 | 22146 ft | 441 kts | 282° |
| 2026-04-25 08:13 | -33.63910 | 149.91744 | 22515 ft | 444 kts | 282° |
| 2026-04-25 08:13 | -33.63234 | 149.88117 | 22882 ft | 447 kts | 282° |
| 2026-04-25 08:14 | -33.61882 | 149.80844 | 23630 ft | 451 kts | 282° |
| 2026-04-25 08:14 | -33.61197 | 149.77150 | 23991 ft | 454 kts | 282° |
| 2026-04-25 08:14 | -33.60509 | 149.73444 | 24352 ft | 456 kts | 282° |
| 2026-04-25 08:14 | -33.59849 | 149.69875 | 24695 ft | 458 kts | 282° |
| 2026-04-25 08:15 | -33.59146 | 149.66144 | 25039 ft | 460 kts | 284° |
| 2026-04-25 08:15 | -33.58236 | 149.62455 | 25360 ft | 462 kts | 289° |
| 2026-04-25 08:15 | -33.57085 | 149.58835 | 25697 ft | 464 kts | 291° |
| 2026-04-25 08:15 | -33.55870 | 149.55236 | 26007 ft | 467 kts | 292° |
| 2026-04-25 08:16 | -33.54638 | 149.51616 | 26295 ft | 469 kts | 292° |
| 2026-04-25 08:16 | -33.53402 | 149.47984 | 26606 ft | 471 kts | 292° |
| 2026-04-25 08:16 | -33.52165 | 149.44345 | 26895 ft | 473 kts | 292° |
| 2026-04-25 08:16 | -33.50935 | 149.40722 | 27165 ft | 475 kts | 292° |
| 2026-04-25 08:17 | -33.49686 | 149.37042 | 27437 ft | 477 kts | 292° |
| 2026-04-25 08:17 | -33.48432 | 149.33343 | 27686 ft | 480 kts | 292° |
| 2026-04-25 08:17 | -33.47171 | 149.29618 | 27941 ft | 482 kts | 292° |
| 2026-04-25 08:17 | -33.45910 | 149.25894 | 28197 ft | 484 kts | 292° |
| 2026-04-25 08:18 | -33.44645 | 149.22154 | 28447 ft | 485 kts | 292° |
| 2026-04-25 08:18 | -33.43391 | 149.18443 | 28673 ft | 487 kts | 292° |
| 2026-04-25 08:18 | -33.42117 | 149.14671 | 28975 ft | 488 kts | 292° |
| 2026-04-25 08:18 | -33.40844 | 149.10897 | 29306 ft | 487 kts | 292° |
| 2026-04-25 08:19 | -33.39577 | 149.07139 | 29631 ft | 486 kts | 292° |
| 2026-04-25 08:19 | -33.38313 | 149.03388 | 29932 ft | 486 kts | 292° |
| 2026-04-25 08:19 | -33.37048 | 148.99630 | 30224 ft | 486 kts | 292° |
| 2026-04-25 08:19 | -33.35791 | 148.95890 | 30502 ft | 486 kts | 292° |
| 2026-04-25 08:20 | -33.34544 | 148.92183 | 30781 ft | 485 kts | 292° |
| 2026-04-25 08:20 | -33.33133 | 148.88521 | 31102 ft | 484 kts | 297° |
| 2026-04-25 08:20 | -33.31602 | 148.84942 | 31435 ft | 482 kts | 296° |
| 2026-04-25 08:20 | -33.30141 | 148.81324 | 31730 ft | 481 kts | 294° |
| 2026-04-25 08:21 | -33.28818 | 148.77664 | 32020 ft | 479 kts | 292° |
| 2026-04-25 08:21 | -33.27609 | 148.73938 | 32298 ft | 478 kts | 290° |
| 2026-04-25 08:21 | -33.26489 | 148.70210 | 32560 ft | 478 kts | 289° |
| 2026-04-25 08:21 | -33.25421 | 148.66499 | 32809 ft | 477 kts | 288° |
| 2026-04-25 08:22 | -33.24348 | 148.62702 | 33066 ft | 476 kts | 288° |
| 2026-04-25 08:22 | -33.23292 | 148.58957 | 33300 ft | 476 kts | 288° |
| 2026-04-25 08:22 | -33.22242 | 148.55255 | 33515 ft | 475 kts | 289° |
| 2026-04-25 08:22 | -33.21177 | 148.51525 | 33722 ft | 475 kts | 289° |
| 2026-04-25 08:23 | -33.20102 | 148.47786 | 33925 ft | 475 kts | 289° |
| 2026-04-25 08:23 | -33.19026 | 148.44057 | 34133 ft | 475 kts | 289° |
| 2026-04-25 08:23 | -33.17951 | 148.40342 | 34341 ft | 474 kts | 289° |
| 2026-04-25 08:23 | -33.16870 | 148.36614 | 34548 ft | 474 kts | 289° |
| 2026-04-25 08:24 | -33.15790 | 148.32895 | 34761 ft | 473 kts | 289° |
| 2026-04-25 08:24 | -33.14713 | 148.29188 | 34964 ft | 472 kts | 289° |
| 2026-04-25 08:24 | -33.13630 | 148.25465 | 35155 ft | 472 kts | 289° |
| 2026-04-25 08:24 | -33.12542 | 148.21776 | 35338 ft | 471 kts | 290° |
| 2026-04-25 08:25 | -33.11337 | 148.18196 | 35521 ft | 471 kts | 293° |
| 2026-04-25 08:25 | -33.09999 | 148.14579 | 35687 ft | 471 kts | 294° |
| 2026-04-25 08:25 | -33.08643 | 148.11026 | 35839 ft | 470 kts | 294° |
| 2026-04-25 08:25 | -33.07307 | 148.07520 | 35981 ft | 471 kts | 294° |
| 2026-04-25 08:26 | -33.05962 | 148.03947 | 36002 ft | 473 kts | 294° |
| 2026-04-25 08:26 | -33.03308 | 147.96769 | 36002 ft | 472 kts | 293° |
| 2026-04-25 08:27 | -33.00689 | 147.89605 | 36002 ft | 471 kts | 293° |
| 2026-04-25 08:27 | -32.98067 | 147.82436 | 36002 ft | 471 kts | 293° |
| 2026-04-25 08:28 | -32.95456 | 147.75318 | 35998 ft | 471 kts | 293° |
| 2026-04-25 08:28 | -32.92827 | 147.68172 | 36002 ft | 471 kts | 294° |
| 2026-04-25 08:29 | -32.90192 | 147.61029 | 36001 ft | 471 kts | 294° |
| 2026-04-25 08:29 | -32.87555 | 147.53893 | 36002 ft | 471 kts | 294° |
| 2026-04-25 08:30 | -32.84914 | 147.46762 | 36000 ft | 471 kts | 294° |
| 2026-04-25 08:30 | -32.82278 | 147.39659 | 35998 ft | 471 kts | 294° |
| 2026-04-25 08:31 | -32.79626 | 147.32528 | 36001 ft | 472 kts | 294° |
| 2026-04-25 08:31 | -32.76970 | 147.25402 | 35998 ft | 471 kts | 294° |
| 2026-04-25 08:32 | -32.74310 | 147.18281 | 36001 ft | 471 kts | 294° |
| 2026-04-25 08:32 | -32.71648 | 147.11167 | 36001 ft | 471 kts | 294° |
| 2026-04-25 08:33 | -32.68977 | 147.04048 | 36001 ft | 471 kts | 294° |
| 2026-04-25 08:33 | -32.66306 | 146.96942 | 36001 ft | 471 kts | 294° |
| 2026-04-25 08:34 | -32.63632 | 146.89843 | 36002 ft | 471 kts | 294° |
| 2026-04-25 08:34 | -32.60952 | 146.82743 | 36000 ft | 471 kts | 294° |
| 2026-04-25 08:35 | -32.58289 | 146.75701 | 36000 ft | 471 kts | 294° |
| 2026-04-25 08:35 | -32.55603 | 146.68614 | 35999 ft | 471 kts | 294° |
| 2026-04-25 08:36 | -32.52908 | 146.61519 | 35999 ft | 471 kts | 294° |
| 2026-04-25 08:36 | -32.50207 | 146.54421 | 35999 ft | 471 kts | 294° |
| 2026-04-25 08:37 | -32.47508 | 146.47343 | 36001 ft | 471 kts | 294° |
| 2026-04-25 08:37 | -32.44821 | 146.40314 | 35999 ft | 472 kts | 294° |
| 2026-04-25 08:38 | -32.42109 | 146.33230 | 35999 ft | 472 kts | 294° |
| 2026-04-25 08:38 | -32.39396 | 146.26162 | 36002 ft | 472 kts | 294° |
| 2026-04-25 08:39 | -32.36671 | 146.19075 | 36000 ft | 472 kts | 294° |
| 2026-04-25 08:39 | -32.33946 | 146.12004 | 36002 ft | 471 kts | 294° |
| 2026-04-25 08:40 | -32.31242 | 146.04999 | 36000 ft | 471 kts | 294° |
| 2026-04-25 08:40 | -32.28514 | 145.97949 | 36001 ft | 471 kts | 294° |
| 2026-04-25 08:41 | -32.25782 | 145.90902 | 36001 ft | 471 kts | 294° |
| 2026-04-25 08:41 | -32.23042 | 145.83849 | 36002 ft | 471 kts | 294° |
| 2026-04-25 08:42 | -32.20304 | 145.76814 | 36002 ft | 471 kts | 294° |
| 2026-04-25 08:42 | -32.17560 | 145.69781 | 35999 ft | 471 kts | 295° |
| 2026-04-25 08:43 | -32.14831 | 145.62797 | 36000 ft | 471 kts | 295° |
| 2026-04-25 08:43 | -32.12074 | 145.55757 | 35998 ft | 471 kts | 295° |
| 2026-04-25 08:44 | -32.09319 | 145.48736 | 36001 ft | 471 kts | 295° |
| 2026-04-25 08:44 | -32.06586 | 145.41786 | 36000 ft | 471 kts | 295° |
| 2026-04-25 08:45 | -32.03826 | 145.34781 | 36002 ft | 470 kts | 295° |
| 2026-04-25 08:45 | -32.01065 | 145.27790 | 36000 ft | 470 kts | 295° |
| 2026-04-25 08:46 | -31.98295 | 145.20802 | 36001 ft | 470 kts | 295° |
| 2026-04-25 08:46 | -31.95523 | 145.13823 | 36000 ft | 470 kts | 295° |
| 2026-04-25 08:47 | -31.92742 | 145.06836 | 36002 ft | 471 kts | 295° |
| 2026-04-25 08:47 | -31.89959 | 144.99855 | 35999 ft | 471 kts | 295° |
| 2026-04-25 08:48 | -31.87173 | 144.92883 | 36000 ft | 470 kts | 295° |
| 2026-04-25 08:48 | -31.84401 | 144.85957 | 35998 ft | 470 kts | 295° |
| 2026-04-25 08:49 | -31.81610 | 144.78996 | 35999 ft | 470 kts | 295° |
| 2026-04-25 08:49 | -31.78811 | 144.72033 | 35998 ft | 471 kts | 295° |
| 2026-04-25 08:50 | -31.76009 | 144.65073 | 36001 ft | 471 kts | 295° |
| 2026-04-25 08:50 | -31.73204 | 144.58118 | 36000 ft | 471 kts | 295° |
| 2026-04-25 08:51 | -31.70412 | 144.51212 | 35999 ft | 470 kts | 295° |
| 2026-04-25 08:51 | -31.67603 | 144.44277 | 36001 ft | 470 kts | 295° |
| 2026-04-25 08:52 | -31.64790 | 144.37344 | 35997 ft | 470 kts | 295° |
| 2026-04-25 08:52 | -31.62452 | 144.31592 | 36000 ft | 470 kts | 295° |
| 2026-04-25 08:53 | -31.59634 | 144.24670 | 36001 ft | 470 kts | 295° |
| 2026-04-25 08:53 | -31.56812 | 144.17754 | 35997 ft | 470 kts | 295° |
| 2026-04-25 08:54 | -31.53987 | 144.10844 | 36002 ft | 470 kts | 295° |
| 2026-04-25 08:54 | -31.51152 | 144.03920 | 35997 ft | 470 kts | 295° |
| 2026-04-25 08:55 | -31.48318 | 143.97016 | 35998 ft | 470 kts | 295° |
| 2026-04-25 08:55 | -31.45498 | 143.90156 | 36001 ft | 470 kts | 295° |
| 2026-04-25 08:56 | -31.42655 | 143.83254 | 35997 ft | 470 kts | 295° |
| 2026-04-25 08:56 | -31.39811 | 143.76364 | 35997 ft | 470 kts | 296° |
| 2026-04-25 08:57 | -31.36961 | 143.69471 | 36000 ft | 470 kts | 296° |
| 2026-04-25 08:57 | -31.34108 | 143.62584 | 36000 ft | 470 kts | 296° |
| 2026-04-25 08:58 | -31.31274 | 143.55756 | 36001 ft | 470 kts | 296° |
| 2026-04-25 08:58 | -31.28412 | 143.48873 | 35998 ft | 470 kts | 296° |
| 2026-04-25 08:59 | -31.25549 | 143.42003 | 35999 ft | 470 kts | 296° |
| 2026-04-25 08:59 | -31.22683 | 143.35136 | 35997 ft | 470 kts | 296° |
| 2026-04-25 09:00 | -31.19813 | 143.28272 | 36001 ft | 470 kts | 296° |
| 2026-04-25 09:00 | -31.16937 | 143.21409 | 35999 ft | 470 kts | 296° |
| 2026-04-25 09:01 | -31.14060 | 143.14554 | 35999 ft | 470 kts | 296° |
| 2026-04-25 09:01 | -31.11192 | 143.07735 | 36000 ft | 470 kts | 296° |
| 2026-04-25 09:02 | -31.08300 | 143.00871 | 36001 ft | 470 kts | 296° |
| 2026-04-25 09:02 | -31.05410 | 142.94025 | 36000 ft | 470 kts | 296° |
| 2026-04-25 09:03 | -31.02516 | 142.87182 | 36000 ft | 470 kts | 296° |
| 2026-04-25 09:03 | -30.99619 | 142.80345 | 36002 ft | 470 kts | 296° |
| 2026-04-25 09:04 | -30.96730 | 142.73549 | 35997 ft | 471 kts | 296° |
| 2026-04-25 09:04 | -30.93826 | 142.66716 | 36002 ft | 471 kts | 296° |
| 2026-04-25 09:05 | -30.90913 | 142.59875 | 36002 ft | 472 kts | 296° |
| 2026-04-25 09:05 | -30.87993 | 142.53036 | 36002 ft | 471 kts | 296° |
| 2026-04-25 09:06 | -30.85075 | 142.46212 | 35999 ft | 471 kts | 296° |
| 2026-04-25 09:06 | -30.82147 | 142.39380 | 36001 ft | 471 kts | 296° |
| 2026-04-25 09:07 | -30.79222 | 142.32566 | 35999 ft | 471 kts | 296° |
| 2026-04-25 09:07 | -30.76294 | 142.25758 | 36002 ft | 471 kts | 296° |
| 2026-04-25 09:08 | -30.73358 | 142.18942 | 36000 ft | 471 kts | 296° |
| 2026-04-25 09:08 | -30.70421 | 142.12137 | 35999 ft | 471 kts | 296° |
| 2026-04-25 09:09 | -30.67483 | 142.05343 | 36000 ft | 470 kts | 296° |
| 2026-04-25 09:09 | -30.64553 | 141.98581 | 36002 ft | 470 kts | 296° |
| 2026-04-25 09:10 | -30.61608 | 141.91794 | 35999 ft | 470 kts | 296° |
| 2026-04-25 09:10 | -30.58656 | 141.85004 | 35998 ft | 470 kts | 296° |
| 2026-04-25 09:11 | -30.54231 | 141.74848 | 36001 ft | 470 kts | 297° |
| 2026-04-25 09:11 | -30.51274 | 141.68076 | 35998 ft | 470 kts | 297° |
| 2026-04-25 09:12 | -30.48317 | 141.61318 | 36002 ft | 470 kts | 297° |
| 2026-04-25 09:12 | -30.45355 | 141.54560 | 36000 ft | 470 kts | 297° |
| 2026-04-25 09:13 | -30.42389 | 141.47805 | 35999 ft | 470 kts | 297° |
| 2026-04-25 09:13 | -30.39439 | 141.41096 | 35999 ft | 470 kts | 297° |
| 2026-04-25 09:14 | -30.36467 | 141.34352 | 35999 ft | 470 kts | 297° |
| 2026-04-25 09:14 | -30.33489 | 141.27604 | 35999 ft | 470 kts | 297° |
| 2026-04-25 09:15 | -30.30505 | 141.20857 | 35998 ft | 470 kts | 297° |
| 2026-04-25 09:15 | -30.27525 | 141.14129 | 36001 ft | 470 kts | 297° |
| 2026-04-25 09:16 | -30.24553 | 141.07432 | 36000 ft | 470 kts | 297° |
| 2026-04-25 09:16 | -30.21567 | 141.00715 | 35997 ft | 470 kts | 297° |
| 2026-04-25 09:17 | -30.17068 | 140.90630 | 36000 ft | 470 kts | 297° |
| 2026-04-25 09:18 | -30.14090 | 140.83955 | 36002 ft | 470 kts | 297° |
| 2026-04-25 09:18 | -30.11087 | 140.77237 | 36001 ft | 470 kts | 297° |
| 2026-04-25 09:19 | -30.08084 | 140.70534 | 35998 ft | 470 kts | 297° |
| 2026-04-25 09:19 | -30.05074 | 140.63828 | 36002 ft | 470 kts | 297° |
| 2026-04-25 09:20 | -30.02079 | 140.57170 | 36000 ft | 470 kts | 297° |
| 2026-04-25 09:20 | -29.99063 | 140.50475 | 36000 ft | 470 kts | 297° |
| 2026-04-25 09:21 | -29.96042 | 140.43780 | 36000 ft | 470 kts | 297° |
| 2026-04-25 09:21 | -29.93034 | 140.37124 | 36001 ft | 470 kts | 297° |
| 2026-04-25 09:22 | -29.90009 | 140.30444 | 36000 ft | 470 kts | 297° |
| 2026-04-25 09:22 | -29.86984 | 140.23775 | 36001 ft | 470 kts | 297° |
| 2026-04-25 09:23 | -29.83947 | 140.17090 | 35998 ft | 470 kts | 297° |
| 2026-04-25 09:23 | -29.80931 | 140.10464 | 36000 ft | 469 kts | 297° |
| 2026-04-25 09:24 | -29.77893 | 140.03799 | 35998 ft | 469 kts | 297° |
| 2026-04-25 09:24 | -29.74856 | 139.97150 | 36000 ft | 469 kts | 297° |
| 2026-04-25 09:25 | -29.71812 | 139.90495 | 36001 ft | 469 kts | 297° |
| 2026-04-25 09:25 | -29.68784 | 139.83887 | 36000 ft | 470 kts | 297° |
| 2026-04-25 09:26 | -29.65731 | 139.77228 | 35998 ft | 470 kts | 297° |
| 2026-04-25 09:26 | -29.62676 | 139.70588 | 36001 ft | 470 kts | 297° |
| 2026-04-25 09:27 | -29.59620 | 139.63958 | 36000 ft | 470 kts | 298° |
| 2026-04-25 09:27 | -29.56576 | 139.57363 | 36001 ft | 470 kts | 298° |
| 2026-04-25 09:28 | -29.53508 | 139.50726 | 36000 ft | 470 kts | 298° |
| 2026-04-25 09:28 | -29.50442 | 139.44104 | 35999 ft | 470 kts | 298° |
| 2026-04-25 09:29 | -29.47385 | 139.37511 | 36000 ft | 470 kts | 298° |
| 2026-04-25 09:29 | -29.44304 | 139.30878 | 36000 ft | 470 kts | 298° |
| 2026-04-25 09:30 | -29.41224 | 139.24260 | 36000 ft | 470 kts | 298° |
| 2026-04-25 09:30 | -29.38156 | 139.17678 | 35999 ft | 470 kts | 298° |
| 2026-04-25 09:31 | -29.35073 | 139.11073 | 36000 ft | 470 kts | 298° |
| 2026-04-25 09:31 | -29.31982 | 139.04464 | 36001 ft | 470 kts | 298° |
| 2026-04-25 09:32 | -29.28888 | 138.97858 | 35999 ft | 470 kts | 298° |
| 2026-04-25 09:32 | -29.25787 | 138.91250 | 35997 ft | 470 kts | 298° |
| 2026-04-25 09:33 | -29.22691 | 138.84662 | 36000 ft | 470 kts | 298° |
| 2026-04-25 09:33 | -29.19605 | 138.78107 | 35998 ft | 470 kts | 298° |
| 2026-04-25 09:34 | -29.16504 | 138.71530 | 36000 ft | 470 kts | 298° |
| 2026-04-25 09:34 | -29.13395 | 138.64947 | 36000 ft | 470 kts | 298° |
| 2026-04-25 09:35 | -29.10307 | 138.58418 | 36001 ft | 470 kts | 298° |
| 2026-04-25 09:35 | -29.07192 | 138.51845 | 35998 ft | 470 kts | 298° |
| 2026-04-25 09:36 | -29.04070 | 138.45267 | 36002 ft | 470 kts | 298° |
| 2026-04-25 09:36 | -29.00952 | 138.38708 | 35999 ft | 470 kts | 298° |
| 2026-04-25 09:37 | -28.97830 | 138.32151 | 36000 ft | 470 kts | 298° |
| 2026-04-25 09:37 | -28.94724 | 138.25639 | 36000 ft | 470 kts | 298° |
| 2026-04-25 09:38 | -28.91599 | 138.19095 | 36001 ft | 469 kts | 298° |
| 2026-04-25 09:38 | -28.88467 | 138.12551 | 35999 ft | 469 kts | 298° |
| 2026-04-25 09:39 | -28.85326 | 138.05996 | 36001 ft | 469 kts | 298° |
| 2026-04-25 09:39 | -28.82211 | 137.99507 | 35998 ft | 469 kts | 298° |
| 2026-04-25 09:40 | -28.77502 | 137.89716 | 36000 ft | 469 kts | 298° |
| 2026-04-25 09:40 | -28.74348 | 137.83171 | 36000 ft | 469 kts | 298° |
| 2026-04-25 09:41 | -28.71203 | 137.76656 | 35999 ft | 469 kts | 298° |
| 2026-04-25 09:41 | -28.68051 | 137.70136 | 36000 ft | 469 kts | 298° |
| 2026-04-25 09:42 | -28.65434 | 137.64731 | 35998 ft | 469 kts | 298° |
| 2026-04-25 09:42 | -28.62275 | 137.58217 | 36001 ft | 469 kts | 298° |
| 2026-04-25 09:43 | -28.59114 | 137.51707 | 36001 ft | 469 kts | 298° |
| 2026-04-25 09:43 | -28.55949 | 137.45201 | 35998 ft | 469 kts | 299° |
| 2026-04-25 09:44 | -28.52804 | 137.38746 | 36001 ft | 469 kts | 299° |
| 2026-04-25 09:44 | -28.49636 | 137.32254 | 36001 ft | 469 kts | 299° |
| 2026-04-25 09:45 | -28.46466 | 137.25766 | 36000 ft | 469 kts | 299° |
| 2026-04-25 09:45 | -28.43291 | 137.19279 | 36000 ft | 469 kts | 299° |
| 2026-04-25 09:46 | -28.40113 | 137.12798 | 36001 ft | 469 kts | 299° |
| 2026-04-25 09:46 | -28.36934 | 137.06323 | 36002 ft | 469 kts | 299° |
| 2026-04-25 09:47 | -28.33769 | 136.99887 | 35999 ft | 469 kts | 299° |
| 2026-04-25 09:47 | -28.30580 | 136.93413 | 36001 ft | 469 kts | 299° |
| 2026-04-25 09:48 | -28.27391 | 136.86949 | 35999 ft | 469 kts | 299° |
| 2026-04-25 09:48 | -28.24193 | 136.80477 | 36000 ft | 469 kts | 299° |
| 2026-04-25 09:49 | -28.22598 | 136.77252 | 36107 ft | 469 kts | 299° |
| 2026-04-25 09:49 | -28.21003 | 136.74034 | 36311 ft | 468 kts | 299° |
| 2026-04-25 09:49 | -28.19423 | 136.70854 | 36465 ft | 468 kts | 299° |
| 2026-04-25 09:49 | -28.17824 | 136.67639 | 36614 ft | 468 kts | 299° |
| 2026-04-25 09:50 | -28.16226 | 136.64432 | 36763 ft | 468 kts | 299° |
| 2026-04-25 09:50 | -28.14625 | 136.61220 | 36893 ft | 468 kts | 299° |
| 2026-04-25 09:50 | -28.13018 | 136.58000 | 37049 ft | 468 kts | 299° |
| 2026-04-25 09:50 | -28.11417 | 136.54791 | 37164 ft | 468 kts | 299° |
| 2026-04-25 09:51 | -28.09814 | 136.51582 | 37306 ft | 468 kts | 299° |
| 2026-04-25 09:51 | -28.08207 | 136.48367 | 37429 ft | 468 kts | 299° |
| 2026-04-25 09:51 | -28.06622 | 136.45197 | 37559 ft | 468 kts | 299° |
| 2026-04-25 09:51 | -28.05021 | 136.41998 | 37678 ft | 468 kts | 299° |
| 2026-04-25 09:52 | -28.03411 | 136.38785 | 37797 ft | 468 kts | 299° |
| 2026-04-25 09:52 | -28.01807 | 136.35585 | 37913 ft | 468 kts | 299° |
| 2026-04-25 09:52 | -27.98579 | 136.29153 | 38002 ft | 470 kts | 299° |
| 2026-04-25 09:53 | -27.95352 | 136.22733 | 38000 ft | 468 kts | 299° |
| 2026-04-25 09:53 | -27.92127 | 136.16329 | 38000 ft | 467 kts | 299° |
| 2026-04-25 09:54 | -27.88925 | 136.09977 | 38000 ft | 468 kts | 300° |
| 2026-04-25 09:54 | -27.85697 | 136.03584 | 38000 ft | 468 kts | 300° |
| 2026-04-25 09:55 | -27.82471 | 135.97205 | 38000 ft | 468 kts | 300° |
| 2026-04-25 09:55 | -27.79231 | 135.90807 | 38000 ft | 468 kts | 300° |
| 2026-04-25 09:56 | -27.76014 | 135.84465 | 38000 ft | 468 kts | 300° |
| 2026-04-25 09:56 | -27.72775 | 135.78089 | 38000 ft | 468 kts | 300° |
| 2026-04-25 09:57 | -27.69532 | 135.71714 | 38000 ft | 468 kts | 300° |
| 2026-04-25 09:57 | -27.66282 | 135.65335 | 38000 ft | 468 kts | 300° |
| 2026-04-25 09:58 | -27.63030 | 135.58963 | 38000 ft | 468 kts | 300° |
| 2026-04-25 09:58 | -27.59777 | 135.52597 | 38000 ft | 468 kts | 300° |
| 2026-04-25 09:59 | -27.56541 | 135.46274 | 38000 ft | 468 kts | 300° |
| 2026-04-25 09:59 | -27.53289 | 135.39923 | 38000 ft | 468 kts | 300° |
| 2026-04-25 10:00 | -27.50059 | 135.33548 | 38000 ft | 468 kts | 300° |
| 2026-04-25 10:00 | -27.46831 | 135.27176 | 38000 ft | 468 kts | 300° |
| 2026-04-25 10:01 | -27.43595 | 135.20811 | 38000 ft | 468 kts | 300° |
| 2026-04-25 10:01 | -27.40355 | 135.14456 | 38000 ft | 468 kts | 300° |
| 2026-04-25 10:02 | -27.37123 | 135.08127 | 38000 ft | 468 kts | 300° |
| 2026-04-25 10:02 | -27.33872 | 135.01770 | 38000 ft | 468 kts | 300° |
| 2026-04-25 10:03 | -27.30620 | 134.95419 | 38000 ft | 468 kts | 300° |
| 2026-04-25 10:03 | -27.27364 | 134.89071 | 38000 ft | 468 kts | 300° |
| 2026-04-25 10:04 | -27.24130 | 134.82774 | 38000 ft | 469 kts | 300° |
| 2026-04-25 10:04 | -27.20855 | 134.76406 | 38000 ft | 469 kts | 300° |
| 2026-04-25 10:05 | -27.17586 | 134.70060 | 38000 ft | 469 kts | 300° |
| 2026-04-25 10:05 | -27.14315 | 134.63721 | 38000 ft | 469 kts | 300° |
| 2026-04-25 10:06 | -27.11047 | 134.57393 | 38000 ft | 469 kts | 300° |
| 2026-04-25 10:06 | -27.07789 | 134.51098 | 38000 ft | 469 kts | 300° |
| 2026-04-25 10:07 | -27.04513 | 134.44774 | 38000 ft | 469 kts | 300° |
| 2026-04-25 10:07 | -27.01232 | 134.38451 | 38000 ft | 469 kts | 300° |
| 2026-04-25 10:08 | -26.97942 | 134.32120 | 38000 ft | 469 kts | 300° |
| 2026-04-25 10:08 | -26.94657 | 134.25807 | 38000 ft | 469 kts | 300° |
| 2026-04-25 10:09 | -26.91388 | 134.19532 | 38000 ft | 469 kts | 300° |
| 2026-04-25 10:09 | -26.88093 | 134.13218 | 38000 ft | 469 kts | 300° |
| 2026-04-25 10:10 | -26.84796 | 134.06910 | 38000 ft | 469 kts | 300° |
| 2026-04-25 10:10 | -26.81495 | 134.00603 | 38000 ft | 469 kts | 300° |
| 2026-04-25 10:11 | -26.78188 | 133.94293 | 38000 ft | 469 kts | 300° |
| 2026-04-25 10:11 | -26.74897 | 133.88023 | 38000 ft | 469 kts | 300° |
| 2026-04-25 10:12 | -26.71593 | 133.81736 | 38000 ft | 469 kts | 300° |
| 2026-04-25 10:13 | -26.66616 | 133.72284 | 38000 ft | 470 kts | 300° |
| 2026-04-25 10:13 | -26.63300 | 133.65997 | 38000 ft | 470 kts | 300° |
| 2026-04-25 10:14 | -26.59969 | 133.59691 | 38000 ft | 470 kts | 300° |
| 2026-04-25 10:14 | -26.56664 | 133.53444 | 38000 ft | 470 kts | 300° |
| 2026-04-25 10:15 | -26.53331 | 133.47150 | 38000 ft | 470 kts | 300° |
| 2026-04-25 10:15 | -26.49999 | 133.40869 | 38000 ft | 470 kts | 300° |
| 2026-04-25 10:16 | -26.46659 | 133.34581 | 38000 ft | 470 kts | 300° |
| 2026-04-25 10:16 | -26.43342 | 133.28345 | 38000 ft | 470 kts | 300° |
| 2026-04-25 10:17 | -26.39996 | 133.22064 | 38000 ft | 470 kts | 301° |
| 2026-04-25 10:17 | -26.36653 | 133.15797 | 38000 ft | 470 kts | 301° |
| 2026-04-25 10:18 | -26.33303 | 133.09526 | 38000 ft | 470 kts | 301° |
| 2026-04-25 10:18 | -26.29947 | 133.03251 | 38000 ft | 470 kts | 301° |
| 2026-04-25 10:19 | -26.26608 | 132.97018 | 38000 ft | 471 kts | 301° |
| 2026-04-25 10:19 | -26.23247 | 132.90752 | 38000 ft | 471 kts | 301° |
| 2026-04-25 10:20 | -26.19880 | 132.84485 | 38000 ft | 471 kts | 301° |
| 2026-04-25 10:20 | -26.16535 | 132.78268 | 38000 ft | 471 kts | 301° |
| 2026-04-25 10:21 | -26.13162 | 132.72005 | 38000 ft | 471 kts | 301° |
| 2026-04-25 10:21 | -26.09807 | 132.65786 | 38000 ft | 471 kts | 301° |
| 2026-04-25 10:22 | -26.06427 | 132.59529 | 38000 ft | 471 kts | 301° |
| 2026-04-25 10:22 | -26.03044 | 132.53277 | 38000 ft | 471 kts | 301° |
| 2026-04-25 10:23 | -25.99656 | 132.47023 | 38000 ft | 471 kts | 301° |
| 2026-04-25 10:23 | -25.96262 | 132.40765 | 38000 ft | 471 kts | 301° |
| 2026-04-25 10:24 | -25.92899 | 132.34575 | 38000 ft | 471 kts | 301° |
| 2026-04-25 10:24 | -25.89507 | 132.28339 | 38000 ft | 471 kts | 301° |
| 2026-04-25 10:25 | -25.86107 | 132.22095 | 38000 ft | 471 kts | 301° |
| 2026-04-25 10:25 | -25.82714 | 132.15875 | 38000 ft | 471 kts | 301° |
| 2026-04-25 10:26 | -25.79309 | 132.09641 | 38000 ft | 471 kts | 301° |
| 2026-04-25 10:26 | -25.75914 | 132.03432 | 38000 ft | 471 kts | 301° |
| 2026-04-25 10:27 | -25.72525 | 131.97245 | 38000 ft | 471 kts | 301° |
| 2026-04-25 10:27 | -25.69121 | 131.91037 | 38000 ft | 471 kts | 301° |
| 2026-04-25 10:28 | -25.65709 | 131.84822 | 38000 ft | 471 kts | 301° |
| 2026-04-25 10:28 | -25.62295 | 131.78613 | 38000 ft | 471 kts | 301° |
| 2026-04-25 10:29 | -25.58901 | 131.72448 | 38000 ft | 471 kts | 301° |
| 2026-04-25 10:29 | -25.55465 | 131.66216 | 38000 ft | 471 kts | 301° |
| 2026-04-25 10:30 | -25.52069 | 131.60065 | 38000 ft | 471 kts | 301° |
| 2026-04-25 10:30 | -25.48649 | 131.53877 | 38000 ft | 471 kts | 301° |
| 2026-04-25 10:31 | -25.45223 | 131.47689 | 38000 ft | 471 kts | 301° |
| 2026-04-25 10:31 | -25.41795 | 131.41502 | 38000 ft | 471 kts | 301° |
| 2026-04-25 10:32 | -25.38943 | 131.36363 | 38000 ft | 471 kts | 301° |
| 2026-04-25 10:32 | -25.34938 | 131.29156 | 38000 ft | 471 kts | 301° |
| 2026-04-25 10:33 | -25.32081 | 131.24021 | 38000 ft | 471 kts | 301° |
| 2026-04-25 10:33 | -25.28662 | 131.17883 | 38000 ft | 471 kts | 301° |
| 2026-04-25 10:34 | -25.25224 | 131.11720 | 38000 ft | 471 kts | 301° |
| 2026-04-25 10:34 | -25.21784 | 131.05560 | 38000 ft | 471 kts | 301° |
| 2026-04-25 10:35 | -25.18340 | 130.99409 | 37999 ft | 471 kts | 302° |
| 2026-04-25 10:35 | -25.14376 | 130.93657 | 38000 ft | 471 kts | 309° |
| 2026-04-25 10:36 | -25.10190 | 130.88095 | 38000 ft | 471 kts | 310° |
| 2026-04-25 10:36 | -25.05969 | 130.82566 | 38000 ft | 471 kts | 310° |
| 2026-04-25 10:37 | -25.01751 | 130.77039 | 38000 ft | 471 kts | 310° |
| 2026-04-25 10:37 | -24.97557 | 130.71534 | 38000 ft | 471 kts | 310° |
| 2026-04-25 10:38 | -24.93341 | 130.66000 | 38000 ft | 471 kts | 310° |
| 2026-04-25 10:38 | -24.89121 | 130.60468 | 38000 ft | 471 kts | 310° |
| 2026-04-25 10:39 | -24.84909 | 130.54952 | 38000 ft | 471 kts | 310° |
| 2026-04-25 10:39 | -24.80689 | 130.49433 | 38000 ft | 471 kts | 310° |
| 2026-04-25 10:40 | -24.76467 | 130.43919 | 38000 ft | 471 kts | 310° |
| 2026-04-25 10:40 | -24.72236 | 130.38399 | 38000 ft | 471 kts | 310° |
| 2026-04-25 10:41 | -24.68036 | 130.32924 | 38000 ft | 471 kts | 310° |
| 2026-04-25 10:41 | -24.63806 | 130.27418 | 38000 ft | 471 kts | 310° |
| 2026-04-25 10:42 | -24.59578 | 130.21921 | 38000 ft | 471 kts | 310° |
| 2026-04-25 10:42 | -24.55361 | 130.16443 | 38000 ft | 471 kts | 310° |
| 2026-04-25 10:43 | -24.51131 | 130.10957 | 38000 ft | 471 kts | 310° |
| 2026-04-25 10:43 | -24.46889 | 130.05460 | 38000 ft | 471 kts | 310° |
| 2026-04-25 10:44 | -24.42647 | 129.99969 | 38000 ft | 471 kts | 310° |
| 2026-04-25 10:44 | -24.38409 | 129.94491 | 38000 ft | 471 kts | 310° |
| 2026-04-25 10:45 | -24.34169 | 129.89014 | 38000 ft | 471 kts | 310° |
| 2026-04-25 10:45 | -24.29924 | 129.83539 | 38000 ft | 471 kts | 310° |
| 2026-04-25 10:46 | -24.25683 | 129.78074 | 38000 ft | 471 kts | 310° |
| 2026-04-25 10:46 | -24.21438 | 129.72611 | 38000 ft | 471 kts | 310° |
| 2026-04-25 10:47 | -24.17214 | 129.67181 | 38000 ft | 471 kts | 310° |
| 2026-04-25 10:47 | -24.12971 | 129.61732 | 38000 ft | 471 kts | 310° |
| 2026-04-25 10:48 | -24.08728 | 129.56290 | 38000 ft | 471 kts | 310° |
| 2026-04-25 10:48 | -24.04476 | 129.50841 | 38000 ft | 471 kts | 310° |
| 2026-04-25 10:49 | -24.00215 | 129.45389 | 38000 ft | 471 kts | 310° |
| 2026-04-25 10:49 | -23.95979 | 129.39973 | 38000 ft | 471 kts | 310° |
| 2026-04-25 10:50 | -23.91715 | 129.34527 | 38000 ft | 471 kts | 310° |
| 2026-04-25 10:50 | -23.87451 | 129.29089 | 38000 ft | 471 kts | 310° |
| 2026-04-25 10:51 | -23.83180 | 129.23646 | 38000 ft | 471 kts | 310° |
| 2026-04-25 10:51 | -23.78912 | 129.18215 | 38000 ft | 471 kts | 310° |
| 2026-04-25 10:52 | -23.74645 | 129.12790 | 38000 ft | 471 kts | 310° |
| 2026-04-25 10:52 | -23.70395 | 129.07393 | 38000 ft | 471 kts | 310° |
| 2026-04-25 10:53 | -23.66186 | 129.02052 | 38001 ft | 471 kts | 310° |
| 2026-04-25 10:53 | -23.61912 | 128.96637 | 38000 ft | 471 kts | 310° |
| 2026-04-25 10:54 | -23.57637 | 128.91225 | 38000 ft | 471 kts | 310° |
| 2026-04-25 10:54 | -23.53353 | 128.85809 | 38000 ft | 471 kts | 310° |
| 2026-04-25 10:55 | -23.49076 | 128.80406 | 38000 ft | 470 kts | 310° |
| 2026-04-25 10:55 | -23.44793 | 128.75003 | 38000 ft | 470 kts | 310° |
| 2026-04-25 10:56 | -23.40535 | 128.69636 | 38000 ft | 470 kts | 310° |
| 2026-04-25 10:56 | -23.36254 | 128.64246 | 38000 ft | 470 kts | 310° |
| 2026-04-25 10:57 | -23.31972 | 128.58861 | 38000 ft | 470 kts | 310° |
| 2026-04-25 10:57 | -23.27680 | 128.53469 | 38000 ft | 470 kts | 310° |
| 2026-04-25 10:58 | -23.23416 | 128.48119 | 38000 ft | 471 kts | 310° |
| 2026-04-25 10:58 | -23.19122 | 128.42743 | 38000 ft | 471 kts | 311° |
| 2026-04-25 10:59 | -23.14826 | 128.37371 | 38000 ft | 471 kts | 311° |
| 2026-04-25 10:59 | -23.10520 | 128.31991 | 38000 ft | 471 kts | 311° |
| 2026-04-25 11:00 | -23.06225 | 128.26630 | 38000 ft | 471 kts | 311° |
| 2026-04-25 11:00 | -23.01917 | 128.21261 | 38000 ft | 471 kts | 311° |
| 2026-04-25 11:01 | -22.97617 | 128.15906 | 38000 ft | 471 kts | 311° |
| 2026-04-25 11:01 | -22.93309 | 128.10548 | 38000 ft | 471 kts | 311° |
| 2026-04-25 11:02 | -22.89001 | 128.05195 | 38000 ft | 471 kts | 311° |
| 2026-04-25 11:02 | -22.84719 | 127.99881 | 38000 ft | 471 kts | 311° |
| 2026-04-25 11:03 | -22.80404 | 127.94530 | 38000 ft | 471 kts | 311° |
| 2026-04-25 11:03 | -22.76099 | 127.89197 | 38000 ft | 470 kts | 311° |
| 2026-04-25 11:04 | -22.71785 | 127.83859 | 38000 ft | 470 kts | 311° |
| 2026-04-25 11:04 | -22.67473 | 127.78530 | 38000 ft | 470 kts | 311° |
| 2026-04-25 11:05 | -22.63157 | 127.73200 | 38000 ft | 470 kts | 311° |
| 2026-04-25 11:05 | -22.58872 | 127.67914 | 38000 ft | 470 kts | 311° |
| 2026-04-25 11:06 | -22.54553 | 127.62593 | 38000 ft | 470 kts | 311° |
| 2026-04-25 11:06 | -22.50231 | 127.57273 | 38000 ft | 470 kts | 311° |
| 2026-04-25 11:07 | -22.45906 | 127.51955 | 38000 ft | 470 kts | 311° |
| 2026-04-25 11:07 | -22.41580 | 127.46640 | 38000 ft | 470 kts | 311° |
| 2026-04-25 11:08 | -22.37254 | 127.41331 | 38000 ft | 470 kts | 311° |
| 2026-04-25 11:08 | -22.32952 | 127.36058 | 38000 ft | 471 kts | 311° |
| 2026-04-25 11:09 | -22.28623 | 127.30756 | 38000 ft | 471 kts | 311° |
| 2026-04-25 11:09 | -22.24290 | 127.25454 | 38000 ft | 471 kts | 311° |
| 2026-04-25 11:10 | -22.19950 | 127.20151 | 38000 ft | 471 kts | 311° |
| 2026-04-25 11:10 | -22.15614 | 127.14856 | 38000 ft | 471 kts | 311° |
| 2026-04-25 11:11 | -22.11299 | 127.09593 | 38000 ft | 471 kts | 311° |
| 2026-04-25 11:11 | -22.06965 | 127.04312 | 38000 ft | 471 kts | 311° |
| 2026-04-25 11:12 | -22.02623 | 126.99026 | 38000 ft | 470 kts | 311° |
| 2026-04-25 11:12 | -21.98272 | 126.93736 | 38000 ft | 470 kts | 311° |
| 2026-04-25 11:13 | -21.93926 | 126.88456 | 38000 ft | 470 kts | 311° |
| 2026-04-25 11:13 | -21.89583 | 126.83185 | 38000 ft | 470 kts | 311° |
| 2026-04-25 11:14 | -21.85270 | 126.77955 | 38000 ft | 470 kts | 311° |
| 2026-04-25 11:14 | -21.80925 | 126.72693 | 38000 ft | 470 kts | 311° |
| 2026-04-25 11:15 | -21.76572 | 126.67425 | 38000 ft | 470 kts | 311° |
| 2026-04-25 11:15 | -21.72220 | 126.62166 | 38000 ft | 470 kts | 311° |
| 2026-04-25 11:16 | -21.65712 | 126.54307 | 38000 ft | 470 kts | 311° |
| 2026-04-25 11:16 | -21.61355 | 126.49053 | 38000 ft | 470 kts | 311° |
| 2026-04-25 11:17 | -21.57002 | 126.43809 | 38000 ft | 470 kts | 311° |
| 2026-04-25 11:17 | -21.52642 | 126.38563 | 38000 ft | 470 kts | 311° |
| 2026-04-25 11:18 | -21.48293 | 126.33333 | 38000 ft | 470 kts | 311° |
| 2026-04-25 11:18 | -21.43924 | 126.28086 | 38000 ft | 470 kts | 311° |
| 2026-04-25 11:19 | -21.39591 | 126.22886 | 38000 ft | 470 kts | 311° |
| 2026-04-25 11:19 | -21.35234 | 126.17663 | 38000 ft | 470 kts | 311° |
| 2026-04-25 11:20 | -21.30871 | 126.12437 | 38000 ft | 470 kts | 311° |
| 2026-04-25 11:20 | -21.26500 | 126.07207 | 38000 ft | 470 kts | 311° |
| 2026-04-25 11:21 | -21.22871 | 126.02869 | 38000 ft | 470 kts | 311° |
| 2026-04-25 11:21 | -21.18506 | 125.97655 | 38000 ft | 470 kts | 311° |
| 2026-04-25 11:22 | -21.14142 | 125.92447 | 38000 ft | 470 kts | 311° |
| 2026-04-25 11:22 | -21.09770 | 125.87236 | 38000 ft | 470 kts | 311° |
| 2026-04-25 11:23 | -21.05396 | 125.82026 | 38000 ft | 470 kts | 311° |
| 2026-04-25 11:23 | -21.01026 | 125.76826 | 38000 ft | 470 kts | 311° |
| 2026-04-25 11:24 | -20.96679 | 125.71659 | 38000 ft | 470 kts | 311° |
| 2026-04-25 11:24 | -20.92302 | 125.66461 | 38000 ft | 470 kts | 312° |
| 2026-04-25 11:25 | -20.87922 | 125.61255 | 38000 ft | 470 kts | 311° |
| 2026-04-25 11:25 | -20.83556 | 125.56047 | 38000 ft | 470 kts | 311° |
| 2026-04-25 11:26 | -20.79221 | 125.50879 | 38000 ft | 470 kts | 311° |
| 2026-04-25 11:26 | -20.74854 | 125.45682 | 38000 ft | 470 kts | 311° |
| 2026-04-25 11:27 | -20.70482 | 125.40488 | 38000 ft | 470 kts | 311° |
| 2026-04-25 11:27 | -20.66845 | 125.36170 | 38000 ft | 470 kts | 311° |
| 2026-04-25 11:28 | -20.61734 | 125.30109 | 38000 ft | 470 kts | 311° |
| 2026-04-25 11:28 | -20.57352 | 125.24916 | 38000 ft | 470 kts | 312° |
| 2026-04-25 11:29 | -20.53005 | 125.19770 | 38000 ft | 470 kts | 312° |
| 2026-04-25 11:29 | -20.48629 | 125.14595 | 38000 ft | 470 kts | 312° |
| 2026-04-25 11:30 | -20.44243 | 125.09411 | 38000 ft | 470 kts | 312° |
| 2026-04-25 11:30 | -20.39858 | 125.04235 | 38000 ft | 470 kts | 312° |
| 2026-04-25 11:31 | -20.35472 | 124.99062 | 38000 ft | 470 kts | 312° |
| 2026-04-25 11:31 | -20.31114 | 124.93926 | 38000 ft | 470 kts | 312° |
| 2026-04-25 11:32 | -20.26728 | 124.88763 | 38000 ft | 470 kts | 312° |
| 2026-04-25 11:32 | -20.22342 | 124.83603 | 38000 ft | 469 kts | 312° |
| 2026-04-25 11:33 | -20.17950 | 124.78442 | 38000 ft | 469 kts | 312° |
| 2026-04-25 11:33 | -20.13591 | 124.73324 | 38000 ft | 469 kts | 312° |
| 2026-04-25 11:34 | -20.09201 | 124.68174 | 38000 ft | 469 kts | 312° |
| 2026-04-25 11:34 | -20.04812 | 124.63030 | 38000 ft | 469 kts | 312° |
| 2026-04-25 11:35 | -20.00425 | 124.57893 | 38000 ft | 469 kts | 312° |
| 2026-04-25 11:35 | -19.96035 | 124.52758 | 38000 ft | 469 kts | 312° |
| 2026-04-25 11:36 | -19.91659 | 124.47642 | 38000 ft | 469 kts | 312° |
| 2026-04-25 11:36 | -19.87263 | 124.42508 | 38000 ft | 469 kts | 312° |
| 2026-04-25 11:37 | -19.82865 | 124.37377 | 38000 ft | 469 kts | 312° |
| 2026-04-25 11:37 | -19.78468 | 124.32250 | 38000 ft | 469 kts | 312° |
| 2026-04-25 11:38 | -19.74066 | 124.27123 | 38000 ft | 469 kts | 312° |
| 2026-04-25 11:38 | -19.69695 | 124.22037 | 38000 ft | 469 kts | 312° |
| 2026-04-25 11:39 | -19.65293 | 124.16919 | 38000 ft | 469 kts | 312° |
| 2026-04-25 11:39 | -19.60891 | 124.11805 | 38000 ft | 469 kts | 312° |
| 2026-04-25 11:40 | -19.56490 | 124.06698 | 38000 ft | 469 kts | 312° |
| 2026-04-25 11:40 | -19.52089 | 124.01593 | 38000 ft | 469 kts | 312° |
| 2026-04-25 11:41 | -19.47685 | 123.96490 | 38000 ft | 469 kts | 312° |
| 2026-04-25 11:41 | -19.43285 | 123.91397 | 38000 ft | 468 kts | 312° |
| 2026-04-25 11:42 | -19.38874 | 123.86296 | 38000 ft | 468 kts | 312° |
| 2026-04-25 11:42 | -19.34499 | 123.81239 | 38000 ft | 468 kts | 312° |
| 2026-04-25 11:43 | -19.30087 | 123.76146 | 38000 ft | 468 kts | 312° |
| 2026-04-25 11:43 | -19.25672 | 123.71052 | 38000 ft | 469 kts | 312° |
| 2026-04-25 11:44 | -19.21287 | 123.65997 | 38000 ft | 469 kts | 312° |
| 2026-04-25 11:44 | -19.16874 | 123.60915 | 38000 ft | 469 kts | 312° |
| 2026-04-25 11:45 | -19.12461 | 123.55838 | 38000 ft | 469 kts | 312° |
| 2026-04-25 11:45 | -19.08046 | 123.50761 | 38000 ft | 469 kts | 312° |
| 2026-04-25 11:46 | -19.04931 | 123.47183 | 38000 ft | 469 kts | 312° |
| 2026-04-25 11:46 | -19.01803 | 123.43591 | 38000 ft | 469 kts | 312° |
| 2026-04-25 11:47 | -18.85319 | 123.24816 | 38000 ft | 469 kts | 313° |
| 2026-04-25 11:47 | -18.67435 | 123.04723 | 38000 ft | 469 kts | 313° |
| 2026-04-25 11:48 | -18.49557 | 122.84687 | 38000 ft | 469 kts | 313° |
| 2026-04-25 11:48 | -18.31743 | 122.64789 | 38000 ft | 468 kts | 313° |
| 2026-04-25 11:49 | -18.13879 | 122.44899 | 38000 ft | 468 kts | 313° |
| 2026-04-25 11:49 | -17.95991 | 122.24964 | 37995 ft | 468 kts | 309° |
| 2026-04-25 11:50 | -17.89326 | 122.13272 | 38000 ft | 467 kts | 298° |
| 2026-04-25 11:50 | -17.83221 | 122.01208 | 38000 ft | 467 kts | 298° |
| 2026-04-25 11:50 | -17.70904 | 121.77167 | 38000 ft | 467 kts | 298° |
| 2026-04-25 11:51 | -17.58637 | 121.53324 | 38000 ft | 467 kts | 298° |
| 2026-04-25 11:51 | -17.46271 | 121.29375 | 38000 ft | 467 kts | 298° |
| 2026-04-25 11:52 | -17.33876 | 121.05459 | 38000 ft | 467 kts | 298° |
| 2026-04-25 11:52 | -17.21444 | 120.81559 | 38000 ft | 467 kts | 298° |
| 2026-04-25 11:53 | -17.09003 | 120.57728 | 38000 ft | 467 kts | 298° |
| 2026-04-25 11:53 | -16.96496 | 120.33855 | 38000 ft | 467 kts | 298° |
| 2026-04-25 11:54 | -16.84009 | 120.10104 | 38000 ft | 467 kts | 298° |
| 2026-04-25 11:55 | -16.65242 | 119.74566 | 38000 ft | 467 kts | 298° |
| 2026-04-25 11:55 | -16.52656 | 119.50835 | 38000 ft | 466 kts | 299° |
| 2026-04-25 11:56 | -16.40075 | 119.27194 | 38000 ft | 466 kts | 299° |
| 2026-04-25 11:56 | -16.27591 | 119.03814 | 38000 ft | 466 kts | 299° |
| 2026-04-25 11:57 | -16.15916 | 118.82020 | 38000 ft | 466 kts | 299° |
| 2026-04-25 11:57 | -16.03302 | 118.58548 | 38000 ft | 466 kts | 299° |
| 2026-04-25 11:58 | -15.90621 | 118.35028 | 38000 ft | 466 kts | 299° |
| 2026-04-25 11:58 | -15.77905 | 118.11521 | 38000 ft | 466 kts | 299° |
| 2026-04-25 11:59 | -15.65165 | 117.88046 | 38000 ft | 466 kts | 299° |
| 2026-04-25 11:59 | -15.52408 | 117.64614 | 38000 ft | 466 kts | 299° |
| 2026-04-25 12:00 | -15.33309 | 117.29672 | 38000 ft | 466 kts | 299° |
| 2026-04-25 12:01 | -15.14037 | 116.94564 | 38471 ft | 469 kts | 299° |
| 2026-04-25 12:01 | -15.07579 | 116.82835 | 38988 ft | 469 kts | 300° |
| 2026-04-25 12:01 | -15.01112 | 116.71102 | 39492 ft | 469 kts | 300° |
| 2026-04-25 12:01 | -14.94636 | 116.59371 | 39943 ft | 469 kts | 300° |
| 2026-04-25 12:02 | -14.81736 | 116.36055 | 40001 ft | 465 kts | 300° |
| 2026-04-25 12:02 | -14.71895 | 116.18316 | 40001 ft | 465 kts | 300° |
| 2026-04-25 12:03 | -14.60487 | 115.97802 | 40000 ft | 465 kts | 300° |
| 2026-04-25 12:04 | -14.53109 | 115.84564 | 40001 ft | 465 kts | 300° |
| 2026-04-25 12:04 | -14.40179 | 115.61417 | 40001 ft | 465 kts | 300° |
| 2026-04-25 12:05 | -14.27205 | 115.38257 | 39999 ft | 465 kts | 300° |
| 2026-04-25 12:05 | -14.14319 | 115.15322 | 39999 ft | 465 kts | 300° |
| 2026-04-25 12:06 | -14.01329 | 114.92268 | 40001 ft | 465 kts | 300° |
| 2026-04-25 12:06 | -13.88308 | 114.69228 | 40001 ft | 465 kts | 300° |
| 2026-04-25 12:07 | -13.75267 | 114.46213 | 40000 ft | 465 kts | 300° |
| 2026-04-25 12:07 | -13.62174 | 114.23172 | 39998 ft | 465 kts | 300° |
| 2026-04-25 12:08 | -13.49087 | 114.00203 | 40001 ft | 465 kts | 300° |
| 2026-04-25 12:08 | -13.36055 | 113.77394 | 39999 ft | 465 kts | 300° |
| 2026-04-25 12:09 | -13.22918 | 113.54460 | 40001 ft | 465 kts | 300° |
| 2026-04-25 12:09 | -13.09776 | 113.31577 | 40001 ft | 465 kts | 300° |
| 2026-04-25 12:10 | -12.96599 | 113.08694 | 40000 ft | 465 kts | 300° |
| 2026-04-25 12:10 | -12.85630 | 112.89690 | 40001 ft | 465 kts | 300° |
| 2026-04-25 12:11 | -12.72445 | 112.66900 | 40001 ft | 465 kts | 300° |
| 2026-04-25 12:11 | -12.59194 | 112.44054 | 40000 ft | 465 kts | 301° |
| 2026-04-25 12:12 | -12.45965 | 112.21302 | 40001 ft | 465 kts | 301° |
| 2026-04-25 12:12 | -12.32789 | 111.98695 | 40001 ft | 465 kts | 301° |
| 2026-04-25 12:13 | -12.19494 | 111.75942 | 40000 ft | 465 kts | 301° |
| 2026-04-25 12:13 | -12.06194 | 111.53235 | 40001 ft | 465 kts | 301° |
| 2026-04-25 12:14 | -11.99032 | 111.42201 | 39998 ft | 465 kts | 315° |
| 2026-04-25 12:14 | -11.89127 | 111.33728 | 39999 ft | 466 kts | 321° |
| 2026-04-25 12:14 | -11.68859 | 111.17316 | 39998 ft | 466 kts | 321° |
| 2026-04-25 12:15 | -11.48529 | 111.00798 | 39999 ft | 466 kts | 321° |
| 2026-04-25 12:15 | -11.28308 | 110.84403 | 39999 ft | 466 kts | 321° |
| 2026-04-25 12:16 | -11.08007 | 110.67972 | 40001 ft | 466 kts | 321° |
| 2026-04-25 12:16 | -10.87689 | 110.51558 | 39999 ft | 466 kts | 321° |
| 2026-04-25 12:17 | -10.67355 | 110.35160 | 39999 ft | 466 kts | 321° |
| 2026-04-25 12:17 | -10.47012 | 110.18784 | 40003 ft | 466 kts | 321° |
| 2026-04-25 12:18 | -10.26830 | 110.02566 | 40000 ft | 466 kts | 321° |
| 2026-04-25 12:18 | -10.06490 | 109.86248 | 40000 ft | 466 kts | 321° |
| 2026-04-25 12:19 | -9.75899 | 109.61757 | 40000 ft | 473 kts | 321° |
| 2026-04-25 12:20 | -9.55226 | 109.45239 | 40001 ft | 473 kts | 321° |
| 2026-04-25 12:20 | -9.34534 | 109.28733 | 40002 ft | 473 kts | 321° |
| 2026-04-25 12:21 | -9.13878 | 109.12281 | 40001 ft | 473 kts | 321° |
| 2026-04-25 12:21 | -8.93325 | 108.95935 | 40000 ft | 473 kts | 321° |
| 2026-04-25 12:22 | -8.72663 | 108.79528 | 39999 ft | 473 kts | 321° |
| 2026-04-25 12:22 | -8.51980 | 108.63127 | 39999 ft | 473 kts | 321° |
| 2026-04-25 12:23 | -8.31241 | 108.46705 | 39999 ft | 473 kts | 322° |
| 2026-04-25 12:23 | -8.10490 | 108.30297 | 40001 ft | 473 kts | 322° |
| 2026-04-25 12:24 | -7.89766 | 108.14177 | 39998 ft | 473 kts | 322° |
| 2026-04-25 12:24 | -7.68916 | 107.98045 | 40000 ft | 473 kts | 322° |
| 2026-04-25 12:25 | -7.47916 | 107.81817 | 39997 ft | 477 kts | 322° |
| 2026-04-25 12:25 | -7.26604 | 107.65369 | 40000 ft | 485 kts | 322° |
| 2026-04-25 12:26 | -7.05255 | 107.48922 | 40001 ft | 481 kts | 322° |
| 2026-04-25 12:26 | -6.84120 | 107.32581 | 40001 ft | 476 kts | 322° |
| 2026-04-25 12:27 | -6.63149 | 107.16402 | 40000 ft | 476 kts | 322° |
| 2026-04-25 12:27 | -6.42192 | 107.00252 | 40000 ft | 473 kts | 322° |
| 2026-04-25 12:28 | -6.25360 | 106.81116 | 40005 ft | 471 kts | 285° |
| 2026-04-25 12:28 | -6.18477 | 106.55764 | 39998 ft | 472 kts | 301° |
| 2026-04-25 12:28 | -6.08737 | 106.47130 | 40000 ft | 472 kts | 329° |
| 2026-04-25 12:29 | -5.97292 | 106.40703 | 39999 ft | 473 kts | 330° |
| 2026-04-25 12:29 | -5.74362 | 106.27658 | 39998 ft | 473 kts | 330° |
| 2026-04-25 12:30 | -5.51474 | 106.14619 | 39999 ft | 473 kts | 330° |
| 2026-04-25 12:30 | -5.28594 | 106.01597 | 40001 ft | 473 kts | 330° |
| 2026-04-25 12:31 | -5.05678 | 105.88571 | 40001 ft | 473 kts | 330° |
| 2026-04-25 12:31 | -4.82770 | 105.75508 | 39999 ft | 473 kts | 330° |
| 2026-04-25 12:32 | -4.60006 | 105.62552 | 39998 ft | 473 kts | 330° |
| 2026-04-25 12:32 | -4.37114 | 105.49533 | 40000 ft | 473 kts | 330° |
| 2026-04-25 12:33 | -4.14192 | 105.36506 | 39999 ft | 473 kts | 330° |
| 2026-04-25 12:33 | -3.91291 | 105.23502 | 40001 ft | 473 kts | 330° |
| 2026-04-25 12:34 | -3.68334 | 105.10577 | 39998 ft | 473 kts | 330° |
| 2026-04-25 12:34 | -3.45380 | 104.97661 | 40002 ft | 473 kts | 330° |
| 2026-04-25 12:35 | -3.22433 | 104.84756 | 40002 ft | 473 kts | 330° |
| 2026-04-25 12:35 | -2.99470 | 104.71849 | 40000 ft | 473 kts | 330° |
| 2026-04-25 12:36 | -2.75547 | 104.62923 | 39957 ft | 473 kts | 349° |
| 2026-04-25 12:36 | -2.62681 | 104.60555 | 38036 ft | 467 kts | 349° |
| 2026-04-25 12:36 | -2.49916 | 104.58149 | 35753 ft | 466 kts | 349° |
| 2026-04-25 12:36 | -2.37147 | 104.55734 | 33097 ft | 469 kts | 349° |
| 2026-04-25 12:37 | -2.24217 | 104.53291 | 30047 ft | 475 kts | 349° |
| 2026-04-25 12:37 | -2.11351 | 104.50862 | 27534 ft | 464 kts | 349° |
| 2026-04-25 12:37 | -1.98837 | 104.48498 | 25245 ft | 448 kts | 349° |
| 2026-04-25 12:37 | -1.86807 | 104.46227 | 22965 ft | 434 kts | 349° |
| 2026-04-25 12:38 | -1.75124 | 104.44021 | 20720 ft | 419 kts | 349° |
| 2026-04-25 12:38 | -1.63716 | 104.41867 | 20006 ft | 414 kts | 349° |
| 2026-04-25 12:38 | -1.52361 | 104.39724 | 20001 ft | 414 kts | 349° |
| 2026-04-25 12:38 | -1.41058 | 104.37591 | 20002 ft | 414 kts | 349° |
| 2026-04-25 12:39 | -1.29732 | 104.35453 | 20001 ft | 414 kts | 349° |
| 2026-04-25 12:39 | -1.18388 | 104.33313 | 20000 ft | 414 kts | 349° |
| 2026-04-25 12:39 | -1.07079 | 104.31179 | 20001 ft | 414 kts | 349° |
| 2026-04-25 12:39 | -0.95764 | 104.29044 | 19999 ft | 414 kts | 349° |
| 2026-04-25 12:40 | -0.84433 | 104.26907 | 20001 ft | 414 kts | 349° |
| 2026-04-25 12:40 | -0.73115 | 104.24772 | 20001 ft | 414 kts | 349° |
| 2026-04-25 12:40 | -0.61949 | 104.22666 | 19998 ft | 414 kts | 349° |
| 2026-04-25 12:40 | -0.50631 | 104.20507 | 20000 ft | 414 kts | 348° |
| 2026-04-25 12:41 | -0.39356 | 104.18236 | 19998 ft | 414 kts | 348° |
| 2026-04-25 12:41 | -0.28047 | 104.15987 | 20001 ft | 414 kts | 348° |
| 2026-04-25 12:41 | -0.16751 | 104.13747 | 20004 ft | 414 kts | 348° |
| 2026-04-25 12:41 | -0.05475 | 104.11509 | 20002 ft | 414 kts | 348° |
| 2026-04-25 12:42 | 0.05788 | 104.09273 | 20002 ft | 414 kts | 348° |
| 2026-04-25 12:42 | 0.13289 | 104.07785 | 19999 ft | 413 kts | 348° |
| 2026-04-25 12:42 | 0.28374 | 104.04794 | 19998 ft | 412 kts | 349° |
| 2026-04-25 12:42 | 0.39661 | 104.02560 | 20002 ft | 412 kts | 348° |
| 2026-04-25 12:43 | 0.50973 | 104.00314 | 19999 ft | 412 kts | 348° |
| 2026-04-25 12:43 | 0.61950 | 103.98150 | 20001 ft | 378 kts | 348° |
| 2026-04-25 12:43 | 0.80654 | 103.94352 | 18231 ft | 327 kts | 347° |
| 2026-04-25 12:44 | 0.89579 | 103.92441 | 16943 ft | 321 kts | 347° |
| 2026-04-25 12:44 | 0.95635 | 103.91163 | 16096 ft | 317 kts | 348° |
| 2026-04-25 12:44 | 0.99932 | 103.90261 | 15475 ft | 314 kts | 348° |
| 2026-04-25 12:45 | 1.00053 | 103.90236 | 15454 ft | 314 kts | 348° |
| 2026-04-25 12:46 | 1.01235 | 103.89990 | 15293 ft | 313 kts | 348° |
| 2026-04-25 12:46 | 1.03362 | 103.89541 | 15002 ft | 312 kts | 347° |
| 2026-04-25 12:47 | 1.05486 | 103.89090 | 14705 ft | 311 kts | 347° |
| 2026-04-25 12:47 | 1.07593 | 103.88642 | 14416 ft | 309 kts | 347° |
| 2026-04-25 12:47 | 1.09700 | 103.88194 | 14120 ft | 308 kts | 347° |
| 2026-04-25 12:47 | 1.11790 | 103.87751 | 13811 ft | 307 kts | 347° |
| 2026-04-25 12:48 | 1.13842 | 103.87316 | 13546 ft | 305 kts | 347° |
| 2026-04-25 12:48 | 1.15916 | 103.86878 | 13255 ft | 304 kts | 347° |
| 2026-04-25 12:48 | 1.17988 | 103.86450 | 12955 ft | 302 kts | 349° |
| 2026-04-25 12:48 | 1.20085 | 103.86450 | 12615 ft | 302 kts | 12° |
| 2026-04-25 12:49 | 1.21960 | 103.87341 | 12290 ft | 302 kts | 41° |
| 2026-04-25 12:49 | 1.23108 | 103.89049 | 12084 ft | 297 kts | 73° |
| 2026-04-25 12:49 | 1.23428 | 103.91050 | 11978 ft | 287 kts | 82° |
| 2026-04-25 12:49 | 1.23633 | 103.93009 | 11835 ft | 280 kts | 82° |
| 2026-04-25 12:50 | 1.24363 | 103.94772 | 11644 ft | 275 kts | 49° |
| 2026-04-25 12:50 | 1.25900 | 103.95812 | 11490 ft | 267 kts | 15° |
| 2026-04-25 12:50 | 1.27709 | 103.95805 | 11331 ft | 260 kts | 340° |
| 2026-04-25 12:50 | 1.29141 | 103.94781 | 11184 ft | 253 kts | 304° |
| 2026-04-25 12:51 | 1.29673 | 103.93179 | 11038 ft | 247 kts | 268° |
| 2026-04-25 12:51 | 1.29141 | 103.91598 | 10891 ft | 242 kts | 231° |
| 2026-04-25 12:51 | 1.27777 | 103.90697 | 10740 ft | 237 kts | 193° |
| 2026-04-25 12:51 | 1.26168 | 103.90820 | 10465 ft | 239 kts | 156° |
| 2026-04-25 12:52 | 1.24898 | 103.91925 | 9870 ft | 254 kts | 120° |
| 2026-04-25 12:52 | 1.24462 | 103.93676 | 9056 ft | 275 kts | 85° |
| 2026-04-25 12:52 | 1.25140 | 103.95482 | 8457 ft | 284 kts | 51° |
| 2026-04-25 12:52 | 1.26714 | 103.96641 | 8035 ft | 285 kts | 19° |
| 2026-04-25 12:53 | 1.28625 | 103.96736 | 7932 ft | 266 kts | 345° |
| 2026-04-25 12:53 | 1.30097 | 103.95821 | 7888 ft | 240 kts | 310° |
| 2026-04-25 12:53 | 1.30694 | 103.94346 | 7469 ft | 229 kts | 272° |
| 2026-04-25 12:53 | 1.30252 | 103.92854 | 6838 ft | 228 kts | 233° |
| 2026-04-25 12:54 | 1.28955 | 103.92002 | 6251 ft | 226 kts | 193° |
| 2026-04-25 12:54 | 1.27427 | 103.92184 | 5647 ft | 225 kts | 153° |
| 2026-04-25 12:54 | 1.26430 | 103.93291 | 5210 ft | 211 kts | 111° |
| 2026-04-25 12:54 | 1.26416 | 103.94694 | 4517 ft | 205 kts | 68° |
| 2026-04-25 12:55 | 1.27361 | 103.95692 | 3809 ft | 200 kts | 23° |
| 2026-04-25 12:55 | 1.27793 | 103.95823 | 3572 ft | 199 kts | 8° |
| 2026-04-25 12:55 | 1.29581 | 103.94891 | 3028 ft | 163 kts | 306° |
| 2026-04-25 12:55 | 1.30439 | 103.94300 | 2892 ft | 149 kts | 354° |
| 2026-04-25 12:56 | 1.31359 | 103.94695 | 2862 ft | 152 kts | 46° |
| 2026-04-25 12:56 | 1.32104 | 103.95659 | 2298 ft | 198 kts | 47° |
| 2026-04-25 12:56 | 1.33111 | 103.96767 | 1179 ft | 227 kts | 38° |
| 2026-04-25 12:56 | 1.34464 | 103.97576 | 245 ft | 228 kts | 20° |
| 2026-04-25 12:57 | 1.35818 | 103.98151 | 46 ft | 195 kts | 24° |
| 2026-04-25 12:57 | 1.36720 | 103.98513 | 33 ft | 72 kts | 22° |
| 2026-04-25 12:57 | 1.36979 | 103.98641 | 32 ft | 29 kts | 36° |
| 2026-04-25 12:57 | 1.37059 | 103.98718 | 31 ft | 20 kts | 48° |
| 2026-04-25 12:58 | 1.37120 | 103.98794 | 30 ft | 8 kts | 51° |
| 2026-04-25 12:58 | 1.37133 | 103.98810 | 30 ft | 0 kts | 51° |
| 2026-04-25 12:58 | 1.37139 | 103.98817 | 30 ft | 6 kts | 51° |
| 2026-04-25 12:58 | 1.37185 | 103.98879 | 30 ft | 16 kts | 55° |
| 2026-04-25 12:59 | 1.37214 | 103.99008 | 29 ft | 22 kts | 106° |
| 2026-04-25 12:59 | 1.37134 | 103.99050 | 29 ft | 13 kts | 191° |
| 2026-04-25 12:59 | 1.37056 | 103.99060 | 29 ft | 11 kts | 141° |
| 2026-04-25 12:59 | 1.36979 | 103.99186 | 29 ft | 17 kts | 133° |
| 2026-04-25 13:00 | 1.36930 | 103.99197 | 29 ft | 11 kts | 195° |
| 2026-04-25 13:00 | 1.36871 | 103.99180 | 29 ft | 16 kts | 201° |
| 2026-04-25 13:00 | 1.36685 | 103.99117 | 29 ft | 24 kts | 174° |
| 2026-04-25 13:00 | 1.36604 | 103.99128 | 29 ft | 27 kts | 172° |
| 2026-04-25 13:01 | 1.36543 | 103.99136 | 29 ft | 29 kts | 173° |
| 2026-04-25 13:01 | 1.36442 | 103.99185 | 29 ft | 0 kts | 109° |
| 2026-04-25 13:02 | 1.36444 | 103.99191 | 29 ft | 1 kts | 78° |
| 2026-04-25 13:02 | 1.36456 | 103.99198 | 29 ft | 4 kts | 28° |
| 2026-04-25 13:02 | 1.36490 | 103.99227 | 29 ft | 9 kts | 58° |
| 2026-04-25 13:02 | 1.36474 | 103.99270 | 29 ft | 8 kts | 134° |
| 2026-04-25 13:03 | 1.36441 | 103.99292 | 29 ft | 0 kts | 145° |